sensor_id;sensor_type;location;lat;lon;timestamp;P1;durP1;ratioP1;P2;durP2;ratioP2
6527;SDS011;64597;42.664;23.256;2023-02-01T00:00:18;5.13;;;1.95;;
6527;SDS011;64597;42.664;23.256;2023-02-01T00:02:43;2.63;;;2.00;;
6527;SDS011;64597;42.664;23.256;2023-02-01T00:05:11;2.05;;;1.80;;
6527;SDS011;64597;42.664;23.256;2023-02-01T00:07:36;4.10;;;2.30;;
6527;SDS011;64597;42.664;23.256;2023-02-01T00:10:03;3.53;;;2.25;;
6527;SDS011;64597;42.664;23.256;2023-02-01T00:12:32;2.50;;;1.60;;
6527;SDS011;64597;42.664;23.256;2023-02-01T00:14:58;3.05;;;1.80;;
6527;SDS011;64597;42.664;23.256;2023-02-01T00:17:23;3.38;;;2.08;;
6527;SDS011;64597;42.664;23.256;2023-02-01T00:19:49;3.50;;;2.15;;
6527;SDS011;64597;42.664;23.256;2023-02-01T00:22:15;6.25;;;2.13;;
6527;SDS011;64597;42.664;23.256;2023-02-01T00:24:40;3.17;;;1.80;;
6527;SDS011;64597;42.664;23.256;2023-02-01T00:27:06;4.22;;;1.55;;
6527;SDS011;64597;42.664;23.256;2023-02-01T00:29:31;2.80;;;1.75;;
6527;SDS011;64597;42.664;23.256;2023-02-01T00:31:57;3.60;;;2.08;;
6527;SDS011;64597;42.664;23.256;2023-02-01T00:34:22;2.15;;;1.80;;
6527;SDS011;64597;42.664;23.256;2023-02-01T00:36:48;3.10;;;2.08;;
6527;SDS011;64597;42.664;23.256;2023-02-01T00:39:13;2.50;;;1.70;;
6527;SDS011;64597;42.664;23.256;2023-02-01T00:41:39;2.05;;;1.67;;
6527;SDS011;64597;42.664;23.256;2023-02-01T00:44:05;4.38;;;1.70;;
6527;SDS011;64597;42.664;23.256;2023-02-01T00:46:31;2.63;;;1.77;;
6527;SDS011;64597;42.664;23.256;2023-02-01T00:48:57;3.38;;;2.28;;
6527;SDS011;64597;42.664;23.256;2023-02-01T00:51:23;7.18;;;2.15;;
6527;SDS011;64597;42.664;23.256;2023-02-01T00:53:50;2.53;;;1.83;;
6527;SDS011;64597;42.664;23.256;2023-02-01T00:56:15;3.83;;;1.98;;
6527;SDS011;64597;42.664;23.256;2023-02-01T00:58:43;1.95;;;1.50;;
6527;SDS011;64597;42.664;23.256;2023-02-01T01:01:10;2.72;;;2.03;;
6527;SDS011;64597;42.664;23.256;2023-02-01T01:03:41;2.60;;;1.52;;
6527;SDS011;64597;42.664;23.256;2023-02-01T01:06:10;3.22;;;1.90;;
6527;SDS011;64597;42.664;23.256;2023-02-01T01:08:40;7.18;;;2.17;;
6527;SDS011;64597;42.664;23.256;2023-02-01T01:11:07;5.63;;;1.63;;
6527;SDS011;64597;42.664;23.256;2023-02-01T01:13:35;2.50;;;1.63;;
6527;SDS011;64597;42.664;23.256;2023-02-01T01:16:01;3.38;;;1.67;;
6527;SDS011;64597;42.664;23.256;2023-02-01T01:18:29;2.13;;;1.65;;
6527;SDS011;64597;42.664;23.256;2023-02-01T01:20:55;2.30;;;1.27;;
6527;SDS011;64597;42.664;23.256;2023-02-01T01:23:21;2.60;;;1.77;;
6527;SDS011;64597;42.664;23.256;2023-02-01T01:25:47;1.98;;;1.48;;
6527;SDS011;64597;42.664;23.256;2023-02-01T01:28:12;2.88;;;1.50;;
6527;SDS011;64597;42.664;23.256;2023-02-01T01:30:38;2.92;;;1.60;;
6527;SDS011;64597;42.664;23.256;2023-02-01T01:33:03;3.15;;;1.23;;
6527;SDS011;64597;42.664;23.256;2023-02-01T01:35:30;2.15;;;1.30;;
6527;SDS011;64597;42.664;23.256;2023-02-01T01:37:59;3.03;;;1.65;;
6527;SDS011;64597;42.664;23.256;2023-02-01T01:40:26;2.45;;;1.10;;
6527;SDS011;64597;42.664;23.256;2023-02-01T01:42:52;2.55;;;1.40;;
6527;SDS011;64597;42.664;23.256;2023-02-01T01:45:30;4.07;;;1.50;;
6527;SDS011;64597;42.664;23.256;2023-02-01T01:47:58;1.70;;;1.17;;
6527;SDS011;64597;42.664;23.256;2023-02-01T01:50:27;4.70;;;1.50;;
6527;SDS011;64597;42.664;23.256;2023-02-01T01:52:57;2.92;;;1.65;;
6527;SDS011;64597;42.664;23.256;2023-02-01T01:55:26;3.40;;;1.80;;
6527;SDS011;64597;42.664;23.256;2023-02-01T01:58:02;2.58;;;1.52;;
6527;SDS011;64597;42.664;23.256;2023-02-01T02:00:31;2.28;;;1.42;;
6527;SDS011;64597;42.664;23.256;2023-02-01T02:02:58;2.38;;;1.52;;
6527;SDS011;64597;42.664;23.256;2023-02-01T02:05:28;2.13;;;1.70;;
6527;SDS011;64597;42.664;23.256;2023-02-01T02:07:56;2.65;;;1.20;;
6527;SDS011;64597;42.664;23.256;2023-02-01T02:10:25;2.15;;;1.30;;
6527;SDS011;64597;42.664;23.256;2023-02-01T02:13:12;3.40;;;1.50;;
6527;SDS011;64597;42.664;23.256;2023-02-01T02:15:39;3.05;;;1.20;;
6527;SDS011;64597;42.664;23.256;2023-02-01T02:18:23;2.63;;;1.27;;
6527;SDS011;64597;42.664;23.256;2023-02-01T02:21:16;1.20;;;1.00;;
6527;SDS011;64597;42.664;23.256;2023-02-01T02:54:15;1.42;;;0.93;;
6527;SDS011;64597;42.664;23.256;2023-02-01T02:57:03;4.75;;;1.67;;
6527;SDS011;64597;42.664;23.256;2023-02-01T02:59:55;2.35;;;1.13;;
6527;SDS011;64597;42.664;23.256;2023-02-01T03:02:44;1.48;;;1.13;;
6527;SDS011;64597;42.664;23.256;2023-02-01T03:05:33;1.30;;;0.77;;
6527;SDS011;64597;42.664;23.256;2023-02-01T03:16:06;2.53;;;1.20;;
6527;SDS011;64597;42.664;23.256;2023-02-01T03:18:57;2.08;;;1.27;;
6527;SDS011;64597;42.664;23.256;2023-02-01T03:24:10;1.75;;;1.20;;
6527;SDS011;64597;42.664;23.256;2023-02-01T03:26:41;1.95;;;1.13;;
6527;SDS011;64597;42.664;23.256;2023-02-01T03:29:14;4.80;;;1.00;;
6527;SDS011;64597;42.664;23.256;2023-02-01T03:31:43;1.20;;;1.02;;
6527;SDS011;64597;42.664;23.256;2023-02-01T03:34:10;3.30;;;1.35;;
6527;SDS011;64597;42.664;23.256;2023-02-01T03:36:39;1.98;;;1.10;;
6527;SDS011;64597;42.664;23.256;2023-02-01T03:39:15;2.05;;;1.30;;
6527;SDS011;64597;42.664;23.256;2023-02-01T03:41:42;1.20;;;0.85;;
6527;SDS011;64597;42.664;23.256;2023-02-01T03:44:12;1.00;;;0.80;;
6527;SDS011;64597;42.664;23.256;2023-02-01T03:46:52;5.07;;;1.20;;
6527;SDS011;64597;42.664;23.256;2023-02-01T03:49:28;1.83;;;1.00;;
6527;SDS011;64597;42.664;23.256;2023-02-01T03:52:20;2.50;;;1.08;;
6527;SDS011;64597;42.664;23.256;2023-02-01T03:54:50;2.22;;;0.90;;
6527;SDS011;64597;42.664;23.256;2023-02-01T03:57:18;1.13;;;0.85;;
6527;SDS011;64597;42.664;23.256;2023-02-01T03:59:48;1.13;;;1.02;;
6527;SDS011;64597;42.664;23.256;2023-02-01T04:02:14;2.03;;;1.23;;
6527;SDS011;64597;42.664;23.256;2023-02-01T04:04:40;2.63;;;1.10;;
6527;SDS011;64597;42.664;23.256;2023-02-01T04:07:05;1.42;;;1.00;;
6527;SDS011;64597;42.664;23.256;2023-02-01T04:09:31;1.38;;;1.10;;
6527;SDS011;64597;42.664;23.256;2023-02-01T04:11:56;1.90;;;1.15;;
6527;SDS011;64597;42.664;23.256;2023-02-01T04:14:22;2.28;;;1.50;;
6527;SDS011;64597;42.664;23.256;2023-02-01T04:16:47;1.02;;;0.82;;
6527;SDS011;64597;42.664;23.256;2023-02-01T04:19:12;2.80;;;1.02;;
6527;SDS011;64597;42.664;23.256;2023-02-01T04:21:38;1.45;;;1.02;;
6527;SDS011;64597;42.664;23.256;2023-02-01T04:24:03;2.30;;;1.20;;
6527;SDS011;64597;42.664;23.256;2023-02-01T04:26:29;2.53;;;0.90;;
6527;SDS011;64597;42.664;23.256;2023-02-01T04:28:55;2.47;;;1.35;;
6527;SDS011;64597;42.664;23.256;2023-02-01T04:31:20;3.97;;;1.50;;
6527;SDS011;64597;42.664;23.256;2023-02-01T04:33:55;4.15;;;1.83;;
6527;SDS011;64597;42.664;23.256;2023-02-01T04:36:22;2.90;;;1.40;;
6527;SDS011;64597;42.664;23.256;2023-02-01T04:38:48;1.77;;;1.10;;
6527;SDS011;64597;42.664;23.256;2023-02-01T04:41:15;3.45;;;1.45;;
6527;SDS011;64597;42.664;23.256;2023-02-01T04:43:43;2.60;;;1.42;;
6527;SDS011;64597;42.664;23.256;2023-02-01T04:46:10;2.03;;;1.20;;
6527;SDS011;64597;42.664;23.256;2023-02-01T04:48:35;4.68;;;1.60;;
6527;SDS011;64597;42.664;23.256;2023-02-01T04:51:01;2.03;;;1.42;;
6527;SDS011;64597;42.664;23.256;2023-02-01T04:53:26;3.00;;;1.52;;
6527;SDS011;64597;42.664;23.256;2023-02-01T04:55:52;3.70;;;1.80;;
6527;SDS011;64597;42.664;23.256;2023-02-01T04:58:17;2.17;;;1.65;;
6527;SDS011;64597;42.664;23.256;2023-02-01T05:00:42;4.47;;;2.22;;
6527;SDS011;64597;42.664;23.256;2023-02-01T05:03:08;2.08;;;1.10;;
6527;SDS011;64597;42.664;23.256;2023-02-01T05:05:33;2.63;;;1.50;;
6527;SDS011;64597;42.664;23.256;2023-02-01T05:08:01;2.63;;;1.55;;
6527;SDS011;64597;42.664;23.256;2023-02-01T05:10:29;2.88;;;1.42;;
6527;SDS011;64597;42.664;23.256;2023-02-01T05:12:55;3.50;;;1.63;;
6527;SDS011;64597;42.664;23.256;2023-02-01T05:15:38;2.58;;;1.70;;
6527;SDS011;64597;42.664;23.256;2023-02-01T05:18:04;1.48;;;0.93;;
6527;SDS011;64597;42.664;23.256;2023-02-01T05:20:29;1.60;;;1.40;;
6527;SDS011;64597;42.664;23.256;2023-02-01T05:22:55;3.70;;;1.17;;
6527;SDS011;64597;42.664;23.256;2023-02-01T05:25:20;3.33;;;2.13;;
6527;SDS011;64597;42.664;23.256;2023-02-01T05:27:46;5.45;;;2.25;;
6527;SDS011;64597;42.664;23.256;2023-02-01T05:30:11;4.65;;;2.35;;
6527;SDS011;64597;42.664;23.256;2023-02-01T05:32:37;5.38;;;2.40;;
6527;SDS011;64597;42.664;23.256;2023-02-01T05:35:02;4.68;;;2.17;;
6527;SDS011;64597;42.664;23.256;2023-02-01T05:37:28;1.58;;;1.27;;
6527;SDS011;64597;42.664;23.256;2023-02-01T05:39:54;4.50;;;1.92;;
6527;SDS011;64597;42.664;23.256;2023-02-01T05:42:19;3.85;;;2.10;;
6527;SDS011;64597;42.664;23.256;2023-02-01T05:44:45;3.10;;;2.00;;
6527;SDS011;64597;42.664;23.256;2023-02-01T05:47:10;2.70;;;1.60;;
6527;SDS011;64597;42.664;23.256;2023-02-01T05:49:37;2.90;;;1.73;;
6527;SDS011;64597;42.664;23.256;2023-02-01T05:52:02;3.53;;;1.90;;
6527;SDS011;64597;42.664;23.256;2023-02-01T05:54:28;2.55;;;1.05;;
6527;SDS011;64597;42.664;23.256;2023-02-01T05:56:53;4.82;;;1.88;;
6527;SDS011;64597;42.664;23.256;2023-02-01T05:59:19;2.83;;;1.75;;
6527;SDS011;64597;42.664;23.256;2023-02-01T06:01:44;4.88;;;2.20;;
6527;SDS011;64597;42.664;23.256;2023-02-01T06:04:12;3.60;;;1.85;;
6527;SDS011;64597;42.664;23.256;2023-02-01T06:06:38;5.15;;;1.60;;
6527;SDS011;64597;42.664;23.256;2023-02-01T06:09:03;4.03;;;1.80;;
6527;SDS011;64597;42.664;23.256;2023-02-01T06:11:29;2.67;;;1.67;;
6527;SDS011;64597;42.664;23.256;2023-02-01T06:13:54;3.30;;;1.65;;
6527;SDS011;64597;42.664;23.256;2023-02-01T06:16:20;5.03;;;2.30;;
6527;SDS011;64597;42.664;23.256;2023-02-01T06:18:46;5.93;;;2.00;;
6527;SDS011;64597;42.664;23.256;2023-02-01T06:21:12;4.35;;;2.00;;
6527;SDS011;64597;42.664;23.256;2023-02-01T06:23:39;4.82;;;1.90;;
6527;SDS011;64597;42.664;23.256;2023-02-01T06:26:05;2.78;;;1.30;;
6527;SDS011;64597;42.664;23.256;2023-02-01T06:28:33;2.58;;;1.20;;
6527;SDS011;64597;42.664;23.256;2023-02-01T06:31:05;4.65;;;2.00;;
6527;SDS011;64597;42.664;23.256;2023-02-01T06:33:32;6.15;;;2.10;;
6527;SDS011;64597;42.664;23.256;2023-02-01T06:35:59;4.93;;;2.25;;
6527;SDS011;64597;42.664;23.256;2023-02-01T06:38:25;2.95;;;1.80;;
6527;SDS011;64597;42.664;23.256;2023-02-01T06:40:52;8.38;;;2.95;;
6527;SDS011;64597;42.664;23.256;2023-02-01T06:43:18;5.38;;;1.98;;
6527;SDS011;64597;42.664;23.256;2023-02-01T06:45:44;2.85;;;1.63;;
6527;SDS011;64597;42.664;23.256;2023-02-01T06:48:09;5.88;;;2.30;;
6527;SDS011;64597;42.664;23.256;2023-02-01T06:50:35;2.90;;;2.33;;
6527;SDS011;64597;42.664;23.256;2023-02-01T06:53:00;5.57;;;1.63;;
6527;SDS011;64597;42.664;23.256;2023-02-01T06:55:26;2.78;;;1.70;;
6527;SDS011;64597;42.664;23.256;2023-02-01T06:57:54;2.88;;;1.58;;
6527;SDS011;64597;42.664;23.256;2023-02-01T07:00:22;4.97;;;1.50;;
6527;SDS011;64597;42.664;23.256;2023-02-01T07:02:48;4.65;;;1.60;;
6527;SDS011;64597;42.664;23.256;2023-02-01T07:05:14;3.45;;;1.55;;
6527;SDS011;64597;42.664;23.256;2023-02-01T07:07:39;2.83;;;2.05;;
6527;SDS011;64597;42.664;23.256;2023-02-01T07:10:05;2.42;;;1.63;;
6527;SDS011;64597;42.664;23.256;2023-02-01T07:12:30;4.10;;;1.83;;
6527;SDS011;64597;42.664;23.256;2023-02-01T07:14:56;4.75;;;1.75;;
6527;SDS011;64597;42.664;23.256;2023-02-01T07:17:22;5.00;;;2.00;;
6527;SDS011;64597;42.664;23.256;2023-02-01T07:19:47;4.63;;;1.77;;
6527;SDS011;64597;42.664;23.256;2023-02-01T07:22:15;5.18;;;1.75;;
6527;SDS011;64597;42.664;23.256;2023-02-01T07:24:41;2.78;;;1.70;;
6527;SDS011;64597;42.664;23.256;2023-02-01T07:27:07;6.45;;;2.90;;
6527;SDS011;64597;42.664;23.256;2023-02-01T07:29:32;3.17;;;2.35;;
6527;SDS011;64597;42.664;23.256;2023-02-01T07:31:58;2.83;;;2.08;;
6527;SDS011;64597;42.664;23.256;2023-02-01T07:34:23;4.15;;;2.15;;
6527;SDS011;64597;42.664;23.256;2023-02-01T07:36:49;4.80;;;2.20;;
6527;SDS011;64597;42.664;23.256;2023-02-01T07:39:14;3.58;;;1.58;;
6527;SDS011;64597;42.664;23.256;2023-02-01T07:41:40;2.60;;;1.83;;
6527;SDS011;64597;42.664;23.256;2023-02-01T07:44:05;3.40;;;1.55;;
6527;SDS011;64597;42.664;23.256;2023-02-01T07:46:30;4.63;;;2.22;;
6527;SDS011;64597;42.664;23.256;2023-02-01T07:48:56;4.53;;;1.98;;
6527;SDS011;64597;42.664;23.256;2023-02-01T07:51:22;2.70;;;1.40;;
6527;SDS011;64597;42.664;23.256;2023-02-01T07:53:47;5.88;;;2.47;;
6527;SDS011;64597;42.664;23.256;2023-02-01T07:56:14;5.45;;;2.22;;
6527;SDS011;64597;42.664;23.256;2023-02-01T07:58:40;4.20;;;2.10;;
6527;SDS011;64597;42.664;23.256;2023-02-01T08:01:11;5.55;;;2.20;;
6527;SDS011;64597;42.664;23.256;2023-02-01T08:03:45;2.35;;;1.73;;
6527;SDS011;64597;42.664;23.256;2023-02-01T08:06:14;4.18;;;2.20;;
6527;SDS011;64597;42.664;23.256;2023-02-01T08:08:40;2.50;;;1.52;;
6527;SDS011;64597;42.664;23.256;2023-02-01T08:11:07;3.17;;;1.73;;
6527;SDS011;64597;42.664;23.256;2023-02-01T08:13:33;4.63;;;1.70;;
6527;SDS011;64597;42.664;23.256;2023-02-01T08:16:00;4.38;;;1.58;;
6527;SDS011;64597;42.664;23.256;2023-02-01T08:18:27;2.33;;;1.63;;
6527;SDS011;64597;42.664;23.256;2023-02-01T08:20:53;2.25;;;1.20;;
6527;SDS011;64597;42.664;23.256;2023-02-01T08:23:19;2.90;;;2.05;;
6527;SDS011;64597;42.664;23.256;2023-02-01T08:25:45;3.33;;;2.33;;
6527;SDS011;64597;42.664;23.256;2023-02-01T08:28:11;5.80;;;1.70;;
6527;SDS011;64597;42.664;23.256;2023-02-01T08:30:39;2.17;;;1.48;;
6527;SDS011;64597;42.664;23.256;2023-02-01T08:33:06;3.35;;;1.50;;
6527;SDS011;64597;42.664;23.256;2023-02-01T08:35:34;8.65;;;2.75;;
6527;SDS011;64597;42.664;23.256;2023-02-01T08:38:00;3.70;;;1.90;;
6527;SDS011;64597;42.664;23.256;2023-02-01T08:40:25;3.47;;;1.48;;
6527;SDS011;64597;42.664;23.256;2023-02-01T08:42:51;3.38;;;2.35;;
6527;SDS011;64597;42.664;23.256;2023-02-01T08:45:17;3.75;;;2.15;;
6527;SDS011;64597;42.664;23.256;2023-02-01T08:47:48;3.30;;;1.90;;
6527;SDS011;64597;42.664;23.256;2023-02-01T08:50:14;3.45;;;1.30;;
6527;SDS011;64597;42.664;23.256;2023-02-01T08:52:40;3.33;;;1.52;;
6527;SDS011;64597;42.664;23.256;2023-02-01T08:55:06;3.17;;;1.90;;
6527;SDS011;64597;42.664;23.256;2023-02-01T08:57:32;2.55;;;1.30;;
6527;SDS011;64597;42.664;23.256;2023-02-01T09:00:00;3.42;;;1.83;;
6527;SDS011;64597;42.664;23.256;2023-02-01T09:02:26;6.57;;;1.60;;
6527;SDS011;64597;42.664;23.256;2023-02-01T09:04:52;5.30;;;1.73;;
6527;SDS011;64597;42.664;23.256;2023-02-01T09:07:17;4.70;;;1.70;;
6527;SDS011;64597;42.664;23.256;2023-02-01T09:09:43;3.33;;;1.98;;
6527;SDS011;64597;42.664;23.256;2023-02-01T09:12:09;3.17;;;1.75;;
6527;SDS011;64597;42.664;23.256;2023-02-01T09:14:36;2.97;;;1.45;;
6527;SDS011;64597;42.664;23.256;2023-02-01T09:17:01;4.03;;;1.20;;
6527;SDS011;64597;42.664;23.256;2023-02-01T09:19:27;2.35;;;1.50;;
6527;SDS011;64597;42.664;23.256;2023-02-01T09:21:52;2.90;;;1.73;;
6527;SDS011;64597;42.664;23.256;2023-02-01T09:24:17;3.25;;;1.58;;
6527;SDS011;64597;42.664;23.256;2023-02-01T09:26:43;3.78;;;1.35;;
6527;SDS011;64597;42.664;23.256;2023-02-01T09:29:09;2.38;;;0.90;;
6527;SDS011;64597;42.664;23.256;2023-02-01T09:31:37;4.22;;;1.80;;
6527;SDS011;64597;42.664;23.256;2023-02-01T09:34:04;4.20;;;1.80;;
6527;SDS011;64597;42.664;23.256;2023-02-01T09:36:31;3.08;;;1.70;;
6527;SDS011;64597;42.664;23.256;2023-02-01T09:38:57;1.92;;;1.38;;
6527;SDS011;64597;42.664;23.256;2023-02-01T09:41:32;4.47;;;1.50;;
6527;SDS011;64597;42.664;23.256;2023-02-01T09:47:15;4.20;;;1.85;;
6527;SDS011;64597;42.664;23.256;2023-02-01T09:49:59;2.60;;;1.23;;
6527;SDS011;64597;42.664;23.256;2023-02-01T09:52:34;2.65;;;1.33;;
6527;SDS011;64597;42.664;23.256;2023-02-01T09:55:06;2.75;;;1.50;;
6527;SDS011;64597;42.664;23.256;2023-02-01T09:57:49;2.55;;;1.35;;
6527;SDS011;64597;42.664;23.256;2023-02-01T10:00:40;3.53;;;1.30;;
6527;SDS011;64597;42.664;23.256;2023-02-01T10:03:08;4.03;;;1.70;;
6527;SDS011;64597;42.664;23.256;2023-02-01T10:08:46;2.47;;;1.27;;
6527;SDS011;64597;42.664;23.256;2023-02-01T10:25:22;4.05;;;1.90;;
6527;SDS011;64597;42.664;23.256;2023-02-01T10:27:52;2.60;;;1.50;;
6527;SDS011;64597;42.664;23.256;2023-02-01T10:33:01;2.25;;;1.40;;
6527;SDS011;64597;42.664;23.256;2023-02-01T10:35:39;3.50;;;1.20;;
6527;SDS011;64597;42.664;23.256;2023-02-01T10:38:09;4.82;;;1.73;;
6527;SDS011;64597;42.664;23.256;2023-02-01T10:40:43;6.13;;;1.77;;
6527;SDS011;64597;42.664;23.256;2023-02-01T10:43:09;4.93;;;2.00;;
6527;SDS011;64597;42.664;23.256;2023-02-01T10:45:34;1.95;;;0.98;;
6527;SDS011;64597;42.664;23.256;2023-02-01T10:48:04;4.38;;;1.90;;
6527;SDS011;64597;42.664;23.256;2023-02-01T10:53:13;8.27;;;2.13;;
6527;SDS011;64597;42.664;23.256;2023-02-01T11:00:46;2.35;;;1.33;;
6527;SDS011;64597;42.664;23.256;2023-02-01T11:05:55;3.40;;;1.27;;
6527;SDS011;64597;42.664;23.256;2023-02-01T11:08:21;2.00;;;1.00;;
6527;SDS011;64597;42.664;23.256;2023-02-01T11:10:47;2.25;;;1.30;;
6527;SDS011;64597;42.664;23.256;2023-02-01T11:13:21;2.78;;;1.08;;
6527;SDS011;64597;42.664;23.256;2023-02-01T11:15:55;3.00;;;1.13;;
6527;SDS011;64597;42.664;23.256;2023-02-01T11:18:28;2.53;;;1.30;;
6527;SDS011;64597;42.664;23.256;2023-02-01T11:23:23;4.20;;;1.60;;
6527;SDS011;64597;42.664;23.256;2023-02-01T11:25:51;3.05;;;1.23;;
6527;SDS011;64597;42.664;23.256;2023-02-01T11:28:32;4.00;;;1.70;;
6527;SDS011;64597;42.664;23.256;2023-02-01T11:31:02;4.57;;;1.20;;
6527;SDS011;64597;42.664;23.256;2023-02-01T11:33:33;1.75;;;0.93;;
6527;SDS011;64597;42.664;23.256;2023-02-01T11:36:09;2.60;;;1.48;;
6527;SDS011;64597;42.664;23.256;2023-02-01T11:38:40;4.15;;;1.48;;
6527;SDS011;64597;42.664;23.256;2023-02-01T11:41:27;2.17;;;1.13;;
6527;SDS011;64597;42.664;23.256;2023-02-01T11:43:54;2.38;;;0.73;;
6527;SDS011;64597;42.664;23.256;2023-02-01T11:46:22;1.88;;;0.85;;
6527;SDS011;64597;42.664;23.256;2023-02-01T11:48:53;3.20;;;0.90;;
6527;SDS011;64597;42.664;23.256;2023-02-01T11:54:23;3.03;;;1.35;;
6527;SDS011;64597;42.664;23.256;2023-02-01T11:57:04;4.07;;;1.42;;
6527;SDS011;64597;42.664;23.256;2023-02-01T12:03:08;1.85;;;0.80;;
6527;SDS011;64597;42.664;23.256;2023-02-01T12:09:07;2.42;;;0.90;;
6527;SDS011;64597;42.664;23.256;2023-02-01T12:17:07;2.35;;;0.98;;
6527;SDS011;64597;42.664;23.256;2023-02-01T12:28:03;2.33;;;0.80;;
6527;SDS011;64597;42.664;23.256;2023-02-01T12:33:42;1.85;;;0.93;;
6527;SDS011;64597;42.664;23.256;2023-02-01T12:39:17;1.67;;;1.00;;
6527;SDS011;64597;42.664;23.256;2023-02-01T12:42:03;0.70;;;0.65;;
6527;SDS011;64597;42.664;23.256;2023-02-01T12:44:40;4.72;;;1.08;;
6527;SDS011;64597;42.664;23.256;2023-02-01T12:47:33;3.20;;;1.42;;
6527;SDS011;64597;42.664;23.256;2023-02-01T12:50:12;3.47;;;1.23;;
6527;SDS011;64597;42.664;23.256;2023-02-01T12:52:48;1.92;;;1.00;;
6527;SDS011;64597;42.664;23.256;2023-02-01T12:55:17;3.60;;;1.15;;
6527;SDS011;64597;42.664;23.256;2023-02-01T12:57:53;1.70;;;1.10;;
6527;SDS011;64597;42.664;23.256;2023-02-01T13:07:50;2.40;;;0.82;;
6527;SDS011;64597;42.664;23.256;2023-02-01T13:16:06;1.90;;;0.90;;
6527;SDS011;64597;42.664;23.256;2023-02-01T13:18:54;3.92;;;1.17;;
6527;SDS011;64597;42.664;23.256;2023-02-01T13:21:26;1.67;;;1.10;;
6527;SDS011;64597;42.664;23.256;2023-02-01T13:23:56;3.67;;;1.30;;
6527;SDS011;64597;42.664;23.256;2023-02-01T13:26:23;2.70;;;0.80;;
6527;SDS011;64597;42.664;23.256;2023-02-01T13:28:59;2.67;;;1.00;;
6527;SDS011;64597;42.664;23.256;2023-02-01T13:42:55;1.13;;;0.70;;
6527;SDS011;64597;42.664;23.256;2023-02-01T13:45:24;2.58;;;1.10;;
6527;SDS011;64597;42.664;23.256;2023-02-01T13:47:57;2.28;;;0.90;;
6527;SDS011;64597;42.664;23.256;2023-02-01T13:50:32;2.55;;;0.80;;
6527;SDS011;64597;42.664;23.256;2023-02-01T13:55:41;1.45;;;0.77;;
6527;SDS011;64597;42.664;23.256;2023-02-01T13:58:19;2.17;;;1.02;;
6527;SDS011;64597;42.664;23.256;2023-02-01T14:00:47;1.67;;;0.98;;
6527;SDS011;64597;42.664;23.256;2023-02-01T14:03:42;1.83;;;0.82;;
6527;SDS011;64597;42.664;23.256;2023-02-01T14:06:17;2.80;;;1.30;;
6527;SDS011;64597;42.664;23.256;2023-02-01T14:09:10;2.30;;;1.10;;
6527;SDS011;64597;42.664;23.256;2023-02-01T14:11:41;2.80;;;1.40;;
6527;SDS011;64597;42.664;23.256;2023-02-01T14:19:22;2.42;;;0.98;;
6527;SDS011;64597;42.664;23.256;2023-02-01T14:21:52;1.40;;;0.80;;
6527;SDS011;64597;42.664;23.256;2023-02-01T14:24:24;2.00;;;1.20;;
6527;SDS011;64597;42.664;23.256;2023-02-01T14:27:02;1.90;;;0.90;;
6527;SDS011;64597;42.664;23.256;2023-02-01T14:29:42;3.67;;;1.20;;
6527;SDS011;64597;42.664;23.256;2023-02-01T14:32:16;2.03;;;1.15;;
6527;SDS011;64597;42.664;23.256;2023-02-01T14:47:48;5.43;;;1.90;;
6527;SDS011;64597;42.664;23.256;2023-02-01T14:58:13;2.75;;;1.23;;
6527;SDS011;64597;42.664;23.256;2023-02-01T15:00:51;1.65;;;1.20;;
6527;SDS011;64597;42.664;23.256;2023-02-01T15:08:32;2.75;;;1.05;;
6527;SDS011;64597;42.664;23.256;2023-02-01T15:11:02;3.30;;;1.08;;
6527;SDS011;64597;42.664;23.256;2023-02-01T15:13:35;3.03;;;1.50;;
6527;SDS011;64597;42.664;23.256;2023-02-01T15:16:01;1.95;;;1.42;;
6527;SDS011;64597;42.664;23.256;2023-02-01T15:18:34;2.05;;;1.48;;
6527;SDS011;64597;42.664;23.256;2023-02-01T15:21:00;3.17;;;1.70;;
6527;SDS011;64597;42.664;23.256;2023-02-01T15:23:27;5.18;;;2.53;;
6527;SDS011;64597;42.664;23.256;2023-02-01T15:25:53;4.63;;;1.85;;
6527;SDS011;64597;42.664;23.256;2023-02-01T15:28:20;6.05;;;2.00;;
6527;SDS011;64597;42.664;23.256;2023-02-01T15:30:56;3.95;;;1.63;;
6527;SDS011;64597;42.664;23.256;2023-02-01T15:33:23;4.82;;;2.22;;
6527;SDS011;64597;42.664;23.256;2023-02-01T15:38:33;2.67;;;1.58;;
6527;SDS011;64597;42.664;23.256;2023-02-01T15:41:00;6.47;;;2.42;;
6527;SDS011;64597;42.664;23.256;2023-02-01T15:43:29;4.93;;;2.10;;
6527;SDS011;64597;42.664;23.256;2023-02-01T15:48:25;2.88;;;1.50;;
6527;SDS011;64597;42.664;23.256;2023-02-01T15:50:55;2.92;;;1.50;;
6527;SDS011;64597;42.664;23.256;2023-02-01T15:53:23;2.53;;;1.65;;
6527;SDS011;64597;42.664;23.256;2023-02-01T15:55:52;2.35;;;1.10;;
6527;SDS011;64597;42.664;23.256;2023-02-01T15:58:21;2.00;;;1.25;;
6527;SDS011;64597;42.664;23.256;2023-02-01T16:00:50;6.45;;;2.45;;
6527;SDS011;64597;42.664;23.256;2023-02-01T16:06:03;3.88;;;1.98;;
6527;SDS011;64597;42.664;23.256;2023-02-01T16:08:31;4.32;;;1.80;;
6527;SDS011;64597;42.664;23.256;2023-02-01T16:11:00;4.28;;;1.60;;
6527;SDS011;64597;42.664;23.256;2023-02-01T16:16:07;2.95;;;1.65;;
6527;SDS011;64597;42.664;23.256;2023-02-01T16:18:38;2.83;;;1.30;;
6527;SDS011;64597;42.664;23.256;2023-02-01T16:21:05;3.55;;;1.77;;
6527;SDS011;64597;42.664;23.256;2023-02-01T16:23:33;5.53;;;2.40;;
6527;SDS011;64597;42.664;23.256;2023-02-01T16:25:58;1.83;;;1.10;;
6527;SDS011;64597;42.664;23.256;2023-02-01T16:28:24;4.45;;;1.85;;
6527;SDS011;64597;42.664;23.256;2023-02-01T16:30:52;5.07;;;2.00;;
6527;SDS011;64597;42.664;23.256;2023-02-01T16:33:18;6.95;;;3.20;;
6527;SDS011;64597;42.664;23.256;2023-02-01T16:35:47;5.80;;;3.00;;
6527;SDS011;64597;42.664;23.256;2023-02-01T16:38:14;7.03;;;2.65;;
6527;SDS011;64597;42.664;23.256;2023-02-01T16:40:43;6.68;;;2.20;;
6527;SDS011;64597;42.664;23.256;2023-02-01T16:45:40;5.25;;;2.25;;
6527;SDS011;64597;42.664;23.256;2023-02-01T16:48:05;7.20;;;2.97;;
6527;SDS011;64597;42.664;23.256;2023-02-01T16:50:31;6.13;;;2.92;;
6527;SDS011;64597;42.664;23.256;2023-02-01T16:52:58;9.43;;;4.43;;
6527;SDS011;64597;42.664;23.256;2023-02-01T16:55:23;5.40;;;2.65;;
6527;SDS011;64597;42.664;23.256;2023-02-01T16:57:50;9.13;;;3.55;;
6527;SDS011;64597;42.664;23.256;2023-02-01T17:00:16;6.13;;;3.67;;
6527;SDS011;64597;42.664;23.256;2023-02-01T17:02:42;7.57;;;3.78;;
6527;SDS011;64597;42.664;23.256;2023-02-01T17:05:08;5.93;;;3.17;;
6527;SDS011;64597;42.664;23.256;2023-02-01T17:07:34;7.13;;;3.10;;
6527;SDS011;64597;42.664;23.256;2023-02-01T17:10:03;7.38;;;2.80;;
6527;SDS011;64597;42.664;23.256;2023-02-01T17:12:31;6.18;;;3.00;;
6527;SDS011;64597;42.664;23.256;2023-02-01T17:14:58;8.25;;;3.22;;
6527;SDS011;64597;42.664;23.256;2023-02-01T17:17:30;4.22;;;2.80;;
6527;SDS011;64597;42.664;23.256;2023-02-01T17:20:01;7.30;;;3.30;;
6527;SDS011;64597;42.664;23.256;2023-02-01T17:22:28;5.30;;;3.17;;
6527;SDS011;64597;42.664;23.256;2023-02-01T17:24:53;5.35;;;3.08;;
6527;SDS011;64597;42.664;23.256;2023-02-01T17:27:19;7.28;;;2.33;;
6527;SDS011;64597;42.664;23.256;2023-02-01T17:29:44;4.35;;;2.33;;
6527;SDS011;64597;42.664;23.256;2023-02-01T17:32:21;5.72;;;2.38;;
6527;SDS011;64597;42.664;23.256;2023-02-01T17:34:49;6.85;;;2.75;;
6527;SDS011;64597;42.664;23.256;2023-02-01T17:37:26;6.88;;;2.97;;
6527;SDS011;64597;42.664;23.256;2023-02-01T17:39:54;5.28;;;2.70;;
6527;SDS011;64597;42.664;23.256;2023-02-01T17:42:19;6.68;;;3.60;;
6527;SDS011;64597;42.664;23.256;2023-02-01T17:44:45;5.78;;;3.78;;
6527;SDS011;64597;42.664;23.256;2023-02-01T17:47:11;7.30;;;4.35;;
6527;SDS011;64597;42.664;23.256;2023-02-01T17:49:37;9.07;;;4.38;;
6527;SDS011;64597;42.664;23.256;2023-02-01T17:52:03;7.55;;;3.80;;
6527;SDS011;64597;42.664;23.256;2023-02-01T17:54:29;9.60;;;4.75;;
6527;SDS011;64597;42.664;23.256;2023-02-01T17:56:54;7.65;;;4.07;;